Time;durP1;ratioP1;P1;durP2;ratioP2;P2;SDS_P1;SDS_P2;PMS_P1;PMS_P2;Temp;Humidity;BMP_temperature;BMP_pressure;BME280_temperature;BME280_humidity;BME280_pressure;Samples;Min_cycle;Max_cycle;Signal;HPM_P1;HPM_P2
2021/08/13 00:01:45;;;;;;;6.63;6.13;;;22.60;99.70;;;;;;5049601;28;20721;-72
2021/08/13 00:04:11;;;;;;;6.25;5.78;;;22.60;99.90;;;;;;5049788;28;20210;-72
2021/08/13 00:06:40;;;;;;;5.95;5.45;;;22.60;99.90;;;;;;5049628;28;20293;-72
2021/08/13 00:09:08;;;;;;;6.43;5.80;;;22.60;99.80;;;;;;5049732;28;20227;-72
2021/08/13 00:11:36;;;;;;;6.50;5.90;;;22.60;99.60;;;;;;5049420;28;20279;-71
2021/08/13 00:14:03;;;;;;;6.72;5.80;;;22.60;99.50;;;;;;5049504;28;20232;-71
2021/08/13 00:16:30;;;;;;;6.60;5.97;;;22.50;99.40;;;;;;5049229;28;20324;-72
2021/08/13 00:18:57;;;;;;;6.90;6.30;;;22.50;99.50;;;;;;5049663;28;20278;-72
2021/08/13 00:21:23;;;;;;;6.13;5.65;;;22.50;99.50;;;;;;5049047;28;20690;-71
2021/08/13 00:23:51;;;;;;;6.22;5.82;;;22.50;99.60;;;;;;5049371;28;20310;-72
2021/08/13 00:26:19;;;;;;;6.20;5.70;;;22.50;99.60;;;;;;5049050;28;20235;-71
2021/08/13 00:28:45;;;;;;;6.78;6.25;;;22.50;99.60;;;;;;5049240;28;20211;-71
2021/08/13 00:31:12;;;;;;;6.20;5.80;;;22.50;99.60;;;;;;5049215;28;20301;-71
2021/08/13 00:33:39;;;;;;;6.07;5.57;;;22.40;99.60;;;;;;5048310;28;20742;-71
2021/08/13 00:36:05;;;;;;;6.22;5.47;;;22.40;99.60;;;;;;5048955;28;20565;-71
2021/08/13 00:38:32;;;;;;;6.18;5.63;;;22.40;99.50;;;;;;5048931;28;20204;-72
2021/08/13 00:40:58;;;;;;;6.50;5.93;;;22.40;99.50;;;;;;5049020;28;20204;-72
2021/08/13 00:43:27;;;;;;;6.50;6.00;;;22.40;99.50;;;;;;5048927;28;20686;-72
2021/08/13 00:45:53;;;;;;;6.00;5.60;;;22.40;99.50;;;;;;5048960;28;20208;-71
2021/08/13 00:48:20;;;;;;;5.80;5.40;;;22.40;99.60;;;;;;5048727;28;20270;-71
2021/08/13 00:50:46;;;;;;;5.60;5.20;;;22.40;99.70;;;;;;5048459;28;20715;-71
2021/08/13 00:53:13;;;;;;;6.97;6.00;;;22.40;99.90;;;;;;5048695;28;20301;-71
2021/08/13 00:55:40;;;;;;;6.10;5.60;;;22.50;99.90;;;;;;5048694;28;20214;-71
2021/08/13 00:58:08;;;;;;;6.22;5.68;;;22.40;99.90;;;;;;5048609;28;20262;-71
2021/08/13 01:00:37;;;;;;;6.25;5.63;;;22.40;99.90;;;;;;5048760;28;20192;-71
2021/08/13 01:03:04;;;;;;;6.45;5.88;;;22.40;99.90;;;;;;5048272;28;20681;-72
2021/08/13 01:05:31;;;;;;;5.75;5.10;;;22.40;99.40;;;;;;5048732;28;20219;-71
2021/08/13 01:07:57;;;;;;;6.25;5.80;;;22.40;99.10;;;;;;5048622;28;20271;-72
2021/08/13 01:10:24;;;;;;;6.03;5.63;;;22.30;99.00;;;;;;5048542;28;20204;-72
2021/08/13 01:13:00;;;;;;;5.63;5.13;;;22.40;98.80;;;;;;5048395;28;20239;-72
2021/08/13 01:15:31;;;;;;;5.82;5.32;;;22.30;98.80;;;;;;5031255;28;20665;-72
2021/08/13 01:18:03;;;;;;;5.45;5.05;;;22.30;98.80;;;;;;5028476;28;20216;-71
2021/08/13 01:20:50;;;;;;;5.10;4.80;;;22.30;98.70;;;;;;5028248;28;20717;-72
2021/08/13 01:23:21;;;;;;;5.88;5.28;;;22.30;98.70;;;;;;5028339;28;20635;-71
2021/08/13 01:25:53;;;;;;;6.00;5.25;;;22.30;98.80;;;;;;5028313;28;20197;-71
2021/08/13 01:28:31;;;;;;;4.82;4.53;;;22.30;98.80;;;;;;5028499;28;20246;-71
2021/08/13 01:31:00;;;;;;;5.63;5.28;;;22.30;98.80;;;;;;5028315;28;20189;-71
2021/08/13 01:33:29;;;;;;;5.25;4.85;;;22.20;98.80;;;;;;5027990;28;20236;-71
2021/08/13 01:35:57;;;;;;;5.10;4.80;;;22.20;99.00;;;;;;5028314;28;20263;-71
2021/08/13 01:38:27;;;;;;;5.47;4.88;;;22.20;99.00;;;;;;5028087;28;20576;-71
2021/08/13 01:40:57;;;;;;;5.85;5.45;;;22.20;99.00;;;;;;5028355;28;20587;-71
2021/08/13 01:43:26;;;;;;;5.65;5.07;;;22.20;99.10;;;;;;5028076;28;20232;-71
2021/08/13 01:45:53;;;;;;;7.03;5.38;;;22.10;99.10;;;;;;5028240;28;20293;-71
2021/08/13 01:48:21;;;;;;;5.53;5.05;;;22.20;99.20;;;;;;5028144;28;20267;-71
2021/08/13 01:50:50;;;;;;;5.70;5.20;;;22.10;99.10;;;;;;5028177;28;20263;-71
2021/08/13 01:53:19;;;;;;;5.82;5.13;;;22.10;99.00;;;;;;5027858;28;20753;-71
2021/08/13 01:55:46;;;;;;;5.43;5.03;;;22.10;99.00;;;;;;5027890;28;20204;-71
2021/08/13 01:58:13;;;;;;;5.72;5.22;;;22.10;99.00;;;;;;5027958;28;20209;-71
2021/08/13 02:00:40;;;;;;;7.95;5.00;;;22.10;99.00;;;;;;5027939;28;20209;-71
2021/08/13 02:03:09;;;;;;;5.10;4.63;;;22.10;99.10;;;;;;5028077;28;20692;-71
2021/08/13 02:05:37;;;;;;;5.85;5.30;;;22.10;99.20;;;;;;5027897;28;20255;-71
2021/08/13 02:08:07;;;;;;;6.20;5.57;;;22.10;99.20;;;;;;5027848;28;20671;-71
2021/08/13 02:10:36;;;;;;;5.25;4.95;;;22.10;99.40;;;;;;5027993;28;20201;-71
2021/08/13 02:13:03;;;;;;;5.70;5.30;;;22.10;99.60;;;;;;5028053;28;20276;-71
2021/08/13 02:15:30;;;;;;;7.70;5.18;;;22.10;99.80;;;;;;5030943;28;20372;-71
2021/08/13 02:18:01;;;;;;;5.70;5.30;;;22.10;99.90;;;;;;5031764;28;20244;-71
2021/08/13 02:20:30;;;;;;;5.28;4.82;;;22.10;99.90;;;;;;5031896;28;20205;-71
2021/08/13 02:22:57;;;;;;;6.55;5.57;;;22.10;99.90;;;;;;5031896;28;20232;-71
2021/08/13 02:25:25;;;;;;;6.03;5.55;;;22.10;99.90;;;;;;5031653;28;20215;-71
2021/08/13 02:27:52;;;;;;;5.38;4.97;;;22.10;99.90;;;;;;5031484;28;20679;-71
2021/08/13 02:30:19;;;;;;;5.30;4.90;;;22.00;99.90;;;;;;5031743;28;20294;-71
2021/08/13 02:32:47;;;;;;;5.53;5.10;;;22.00;99.90;;;;;;5031319;28;20267;-71
2021/08/13 02:35:14;;;;;;;5.38;4.95;;;22.00;99.90;;;;;;5031496;28;20205;-71
2021/08/13 02:37:46;;;;;;;5.90;5.35;;;22.00;99.90;;;;;;5031333;28;20263;-71
2021/08/13 02:40:16;;;;;;;5.53;5.18;;;22.00;99.90;;;;;;5031043;28;20922;-71
2021/08/13 02:42:48;;;;;;;6.40;5.73;;;21.90;99.90;;;;;;5031048;28;20267;-71
2021/08/13 02:45:16;;;;;;;5.32;4.88;;;21.90;99.90;;;;;;5031262;28;20657;-71
2021/08/13 02:47:44;;;;;;;4.85;4.55;;;21.90;99.90;;;;;;5031093;28;20232;-71
2021/08/13 02:50:13;;;;;;;5.32;5.03;;;21.90;99.90;;;;;;5031189;28;20225;-71
2021/08/13 02:52:45;;;;;;;4.68;4.43;;;21.80;99.90;;;;;;5031152;28;20232;-71
2021/08/13 02:55:15;;;;;;;5.40;4.95;;;21.80;99.90;;;;;;5031264;28;20225;-71
2021/08/13 02:57:47;;;;;;;6.25;5.55;;;21.80;99.90;;;;;;5030981;28;20604;-70
2021/08/13 03:00:15;;;;;;;5.57;5.20;;;21.80;99.90;;;;;;5030652;28;20773;-71
2021/08/13 03:02:46;;;;;;;5.20;4.70;;;21.80;99.90;;;;;;5030109;28;20204;-71
2021/08/13 03:05:13;;;;;;;5.40;4.97;;;21.80;99.90;;;;;;5031036;28;20193;-71
2021/08/13 03:07:41;;;;;;;5.78;5.25;;;21.80;99.90;;;;;;5030919;28;20266;-71
2021/08/13 03:10:10;;;;;;;5.10;4.80;;;21.80;99.90;;;;;;5030908;28;20224;-71
2021/08/13 03:12:38;;;;;;;5.95;5.45;;;21.70;99.90;;;;;;5030566;28;20268;-71
2021/08/13 03:15:07;;;;;;;5.45;5.07;;;21.70;99.90;;;;;;5030494;28;20224;-71
2021/08/13 03:17:34;;;;;;;7.10;5.65;;;21.70;99.90;;;;;;5030465;28;20290;-71
2021/08/13 03:20:04;;;;;;;6.13;5.63;;;21.70;99.90;;;;;;5030571;28;20235;-71
2021/08/13 03:22:31;;;;;;;5.60;5.10;;;21.70;99.90;;;;;;5030573;28;20251;-71
2021/08/13 03:24:59;;;;;;;5.90;5.45;;;21.70;99.90;;;;;;5030268;28;20216;-71
2021/08/13 03:27:26;;;;;;;6.13;5.72;;;21.70;99.90;;;;;;5029562;28;20719;-71
2021/08/13 03:29:52;;;;;;;5.53;5.20;;;21.70;99.90;;;;;;5030531;28;20236;-71
2021/08/13 03:32:21;;;;;;;6.85;5.47;;;21.70;99.90;;;;;;5030457;28;20260;-71
2021/08/13 03:34:49;;;;;;;5.93;5.35;;;21.70;99.90;;;;;;5030289;28;20244;-70
2021/08/13 03:37:15;;;;;;;5.60;5.30;;;21.60;99.90;;;;;;5030467;28;20263;-71
2021/08/13 03:39:43;;;;;;;5.80;5.35;;;21.60;99.90;;;;;;5030036;28;20683;-71
2021/08/13 03:42:10;;;;;;;6.97;6.32;;;21.60;99.90;;;;;;5030110;28;21051;-71
2021/08/13 03:44:36;;;;;;;5.93;5.38;;;21.60;99.90;;;;;;5029953;28;21025;-71
2021/08/13 03:47:03;;;;;;;8.93;5.80;;;21.60;99.90;;;;;;5030144;28;20347;-71
2021/08/13 03:49:31;;;;;;;6.65;6.05;;;21.60;99.90;;;;;;5030007;28;20266;-71
2021/08/13 03:51:58;;;;;;;5.97;5.32;;;21.60;99.90;;;;;;5030133;28;20259;-71
2021/08/13 03:54:24;;;;;;;5.82;5.40;;;21.60;99.90;;;;;;5029790;28;20687;-71
2021/08/13 03:56:51;;;;;;;6.28;5.85;;;21.60;99.90;;;;;;5029888;28;20209;-72
2021/08/13 03:59:18;;;;;;;5.35;4.85;;;21.50;99.90;;;;;;5029691;28;20318;-71
2021/08/13 04:01:45;;;;;;;5.90;5.50;;;21.50;99.90;;;;;;5029825;28;20248;-71
2021/08/13 04:04:11;;;;;;;5.85;5.32;;;21.50;99.90;;;;;;5029853;28;20212;-71
2021/08/13 04:06:39;;;;;;;6.30;5.67;;;21.50;99.90;;;;;;5029360;28;20618;-71
2021/08/13 04:09:06;;;;;;;5.70;5.28;;;21.50;99.90;;;;;;5029688;28;20214;-71
2021/08/13 04:11:33;;;;;;;5.63;5.13;;;21.50;99.90;;;;;;5029592;28;20255;-71
2021/08/13 04:13:59;;;;;;;6.00;5.50;;;21.60;99.90;;;;;;5029496;28;20236;-71
2021/08/13 04:16:26;;;;;;;6.63;6.15;;;21.50;99.90;;;;;;5029541;28;20224;-71
2021/08/13 04:18:52;;;;;;;6.40;5.80;;;21.50;99.90;;;;;;5029038;28;20691;-71
2021/08/13 04:21:19;;;;;;;6.05;5.50;;;21.50;99.90;;;;;;5029469;28;20208;-71
2021/08/13 04:23:47;;;;;;;6.75;5.97;;;21.50;99.90;;;;;;5029259;28;20279;-70
2021/08/13 04:26:13;;;;;;;5.75;5.38;;;21.50;99.90;;;;;;5029326;28;20270;-71
2021/08/13 04:28:40;;;;;;;6.60;5.93;;;21.50;99.90;;;;;;5029076;28;20745;-71
2021/08/13 04:31:07;;;;;;;6.50;5.78;;;21.60;99.90;;;;;;5029381;28;20247;-71
2021/08/13 04:33:34;;;;;;;6.35;5.75;;;21.50;99.90;;;;;;5028970;28;20663;-71
2021/08/13 04:36:01;;;;;;;6.47;6.07;;;21.50;99.90;;;;;;5028967;28;20928;-71
2021/08/13 04:38:27;;;;;;;6.60;6.00;;;21.50;99.90;;;;;;5028890;28;20201;-71
2021/08/13 04:40:55;;;;;;;6.10;5.60;;;21.50;99.90;;;;;;5029134;28;20232;-71
2021/08/13 04:43:22;;;;;;;5.95;5.55;;;21.50;99.90;;;;;;5029206;28;20208;-71
2021/08/13 04:45:48;;;;;;;6.22;5.70;;;21.60;99.90;;;;;;5029053;28;20209;-70
2021/08/13 04:48:15;;;;;;;6.23;5.77;;;21.50;99.90;;;;;;5029037;28;20287;-71
2021/08/13 04:50:42;;;;;;;6.43;5.93;;;21.60;99.90;;;;;;5028749;28;20256;-71
2021/08/13 04:53:08;;;;;;;5.63;5.22;;;21.50;99.90;;;;;;5028925;28;20309;-71
2021/08/13 04:55:35;;;;;;;5.50;5.10;;;21.50;99.90;;;;;;5029067;28;20266;-71
2021/08/13 04:58:03;;;;;;;6.40;5.90;;;21.60;99.90;;;;;;5028795;28;20240;-71
2021/08/13 05:00:30;;;;;;;6.43;6.00;;;21.60;99.90;;;;;;5029012;28;20189;-71
2021/08/13 05:02:56;;;;;;;6.28;5.78;;;21.60;99.90;;;;;;5028329;28;20608;-71
2021/08/13 05:05:23;;;;;;;6.70;6.10;;;21.60;99.90;;;;;;5028756;28;20208;-71
2021/08/13 05:07:52;;;;;;;6.28;5.82;;;21.50;99.90;;;;;;5028689;28;20601;-71
2021/08/13 05:10:19;;;;;;;6.10;5.65;;;21.50;99.90;;;;;;5028667;28;20209;-71
2021/08/13 05:12:45;;;;;;;6.50;5.97;;;21.60;99.90;;;;;;5028317;28;20243;-71
2021/08/13 05:15:14;;;;;;;6.50;6.00;;;21.60;99.90;;;;;;5028169;28;20271;-71
2021/08/13 05:17:41;;;;;;;7.47;6.20;;;21.60;99.90;;;;;;5028256;28;20208;-71
2021/08/13 05:20:09;;;;;;;8.03;6.23;;;21.50;99.90;;;;;;5028508;28;20204;-71
2021/08/13 05:22:36;;;;;;;6.87;6.27;;;21.50;99.90;;;;;;5027591;28;20262;-71
2021/08/13 05:25:03;;;;;;;6.55;6.15;;;21.50;99.90;;;;;;5028612;28;20205;-71
2021/08/13 05:27:30;;;;;;;7.20;6.60;;;21.50;99.90;;;;;;5028483;28;20297;-71
2021/08/13 05:29:56;;;;;;;6.53;6.07;;;21.50;99.90;;;;;;5028425;28;20270;-71
2021/08/13 05:32:25;;;;;;;6.80;6.30;;;21.50;99.90;;;;;;5028405;28;20675;-71
2021/08/13 05:34:51;;;;;;;6.65;6.05;;;21.50;99.90;;;;;;5027939;28;20733;-71
2021/08/13 05:37:18;;;;;;;8.52;6.93;;;21.50;99.90;;;;;;5027725;28;20247;-71
2021/08/13 05:39:45;;;;;;;7.07;6.45;;;21.50;99.90;;;;;;5027924;28;20722;-71
2021/08/13 05:42:12;;;;;;;6.70;6.10;;;21.40;99.90;;;;;;5028295;28;20251;-71
2021/08/13 05:44:39;;;;;;;7.38;6.70;;;21.50;99.90;;;;;;5028150;28;20572;-71
2021/08/13 05:47:06;;;;;;;7.53;6.83;;;21.40;99.90;;;;;;5027871;28;20320;-71
2021/08/13 05:49:34;;;;;;;8.20;6.80;;;21.40;99.90;;;;;;5029653;28;20282;-71
2021/08/13 05:52:00;;;;;;;9.07;6.77;;;21.40;99.90;;;;;;5032511;28;20259;-71
2021/08/13 05:54:28;;;;;;;7.95;7.10;;;21.50;99.90;;;;;;5032335;28;20228;-71
2021/08/13 05:56:54;;;;;;;6.97;6.47;;;21.50;99.90;;;;;;5032037;28;20244;-72
2021/08/13 05:59:21;;;;;;;8.32;6.88;;;21.50;99.90;;;;;;5032164;28;20673;-71
2021/08/13 06:01:47;;;;;;;8.98;7.05;;;21.50;99.90;;;;;;5031807;28;20546;-71
2021/08/13 06:04:14;;;;;;;8.13;7.43;;;21.50;99.90;;;;;;5032204;28;20244;-71
2021/08/13 06:06:43;;;;;;;8.07;7.37;;;21.50;99.90;;;;;;5032379;28;20209;-71
2021/08/13 06:09:09;;;;;;;8.68;7.18;;;21.50;99.90;;;;;;5032113;28;20262;-71
2021/08/13 06:11:36;;;;;;;9.38;7.32;;;21.50;99.90;;;;;;5031975;28;20232;-71
2021/08/13 06:14:03;;;;;;;8.77;7.38;;;21.60;99.90;;;;;;5031913;28;20271;-71
2021/08/13 06:16:29;;;;;;;7.82;6.85;;;21.60;99.90;;;;;;5031720;28;20204;-71
2021/08/13 06:18:56;;;;;;;7.82;7.13;;;21.60;99.90;;;;;;5031563;28;20720;-71
2021/08/13 06:21:23;;;;;;;7.57;6.97;;;21.60;99.90;;;;;;5031930;28;20205;-71
2021/08/13 06:23:51;;;;;;;8.18;7.43;;;21.70;99.90;;;;;;5031586;28;20721;-72
2021/08/13 06:26:17;;;;;;;9.05;7.78;;;21.70;99.90;;;;;;5031620;28;20247;-71
2021/08/13 06:28:44;;;;;;;7.55;7.03;;;21.70;99.90;;;;;;5031707;28;20201;-71
2021/08/13 06:31:11;;;;;;;8.00;7.20;;;21.80;99.90;;;;;;5031591;28;20201;-71
2021/08/13 06:33:37;;;;;;;7.65;7.03;;;21.80;99.90;;;;;;5031429;28;20236;-71
2021/08/13 06:36:04;;;;;;;7.63;6.90;;;21.80;99.90;;;;;;5031506;28;20263;-71
2021/08/13 06:38:32;;;;;;;9.43;7.70;;;21.90;99.90;;;;;;5031430;28;20212;-71
2021/08/13 06:41:00;;;;;;;7.72;6.95;;;21.90;99.90;;;;;;5031288;28;20209;-71
2021/08/13 06:43:26;;;;;;;11.38;8.27;;;21.90;99.90;;;;;;5031413;28;20216;-71
2021/08/13 06:45:53;;;;;;;8.10;7.38;;;22.00;99.90;;;;;;5030871;28;20793;-71
2021/08/13 06:48:19;;;;;;;8.70;7.88;;;22.00;99.90;;;;;;5031259;28;20204;-71
2021/08/13 06:50:46;;;;;;;9.93;7.70;;;22.00;99.90;;;;;;5031095;28;20245;-71
2021/08/13 06:53:13;;;;;;;8.48;7.70;;;22.00;99.90;;;;;;5031146;28;20674;-71
2021/08/13 06:55:39;;;;;;;8.27;7.32;;;22.10;99.90;;;;;;5030972;28;20574;-71
2021/08/13 06:58:07;;;;;;;8.65;7.95;;;22.00;99.90;;;;;;5031015;28;20216;-71
2021/08/13 07:00:34;;;;;;;7.88;7.20;;;22.10;99.90;;;;;;5030608;28;20197;-71
2021/08/13 07:03:01;;;;;;;11.75;7.90;;;22.10;99.90;;;;;;5030897;28;20208;-71
2021/08/13 07:05:27;;;;;;;8.10;7.35;;;22.10;99.90;;;;;;5030933;28;20251;-71
2021/08/13 07:07:54;;;;;;;8.15;7.45;;;22.10;99.90;;;;;;5030700;28;20208;-72
2021/08/13 07:10:21;;;;;;;7.80;7.07;;;22.10;99.90;;;;;;5030920;28;20209;-71
2021/08/13 07:12:47;;;;;;;7.82;7.20;;;22.20;99.90;;;;;;5030506;28;20233;-71
2021/08/13 07:15:15;;;;;;;8.38;7.47;;;22.20;99.90;;;;;;5030663;28;20272;-71
2021/08/13 07:17:42;;;;;;;8.70;7.80;;;22.20;99.90;;;;;;5030196;28;20611;-71
2021/08/13 07:20:09;;;;;;;8.50;7.72;;;22.20;99.90;;;;;;5030785;28;20209;-71
2021/08/13 07:22:36;;;;;;;8.02;7.28;;;22.30;99.90;;;;;;5030808;28;20209;-71
2021/08/13 07:25:04;;;;;;;8.32;7.63;;;22.30;99.90;;;;;;5030597;28;20286;-71
2021/08/13 07:27:31;;;;;;;8.05;7.32;;;22.30;99.90;;;;;;5030636;28;20204;-71
2021/08/13 07:29:58;;;;;;;8.23;7.40;;;22.30;99.90;;;;;;5030385;28;20212;-71
2021/08/13 07:32:28;;;;;;;8.07;7.45;;;22.40;99.90;;;;;;5030432;28;20235;-71
2021/08/13 07:34:55;;;;;;;8.00;7.30;;;22.40;99.90;;;;;;5030254;28;20293;-71
2021/08/13 07:37:21;;;;;;;8.98;8.10;;;22.50;99.90;;;;;;5030392;28;20208;-71
2021/08/13 07:39:48;;;;;;;8.40;7.68;;;22.50;99.90;;;;;;5030274;28;20309;-71
2021/08/13 07:42:15;;;;;;;9.10;7.38;;;22.50;99.90;;;;;;5030095;28;20694;-71
2021/08/13 07:44:41;;;;;;;8.00;7.40;;;22.50;99.90;;;;;;5029995;28;20247;-71
2021/08/13 07:47:08;;;;;;;8.25;7.65;;;22.60;99.90;;;;;;5030168;28;20745;-71
2021/08/13 07:49:36;;;;;;;8.80;7.97;;;22.60;99.90;;;;;;5030015;28;20310;-71
2021/08/13 07:52:03;;;;;;;8.88;7.97;;;22.70;99.90;;;;;;5029923;28;20236;-71
2021/08/13 07:54:30;;;;;;;8.23;7.57;;;22.70;99.90;;;;;;5029849;28;20745;-71
2021/08/13 07:56:56;;;;;;;10.45;7.65;;;22.70;99.90;;;;;;5029699;28;20779;-71
2021/08/13 07:59:23;;;;;;;9.93;7.90;;;22.80;99.90;;;;;;5029686;28;20287;-71
2021/08/13 08:01:50;;;;;;;7.75;7.10;;;22.80;99.90;;;;;;5029907;28;20650;-71
2021/08/13 08:04:16;;;;;;;8.10;7.40;;;22.80;99.90;;;;;;5029708;28;20450;-71
2021/08/13 08:06:44;;;;;;;9.32;7.55;;;22.90;99.90;;;;;;5029220;28;20209;-71
2021/08/13 08:09:11;;;;;;;9.02;7.47;;;23.00;99.90;;;;;;5029822;28;20209;-71
2021/08/13 08:11:38;;;;;;;8.18;7.57;;;23.00;99.90;;;;;;5028824;28;20225;-71
2021/08/13 08:14:05;;;;;;;8.05;7.25;;;23.10;99.90;;;;;;5029499;28;20232;-71
2021/08/13 08:16:31;;;;;;;8.63;7.82;;;23.10;99.90;;;;;;5029424;28;20288;-71
2021/08/13 08:18:58;;;;;;;7.50;6.63;;;23.20;99.90;;;;;;5029071;28;20287;-71
2021/08/13 08:21:24;;;;;;;8.88;7.75;;;23.20;99.90;;;;;;5029602;28;20208;-72
2021/08/13 08:23:52;;;;;;;8.07;7.35;;;23.20;99.90;;;;;;5029306;28;20212;-71
2021/08/13 08:26:19;;;;;;;7.70;6.93;;;23.30;99.90;;;;;;5029635;28;20220;-71
2021/08/13 08:28:46;;;;;;;7.72;7.03;;;23.30;99.90;;;;;;5028923;28;20258;-71
2021/08/13 08:31:12;;;;;;;8.68;6.75;;;23.40;99.90;;;;;;5029453;28;20212;-71
2021/08/13 08:33:39;;;;;;;7.32;6.43;;;23.40;99.90;;;;;;5029101;28;20213;-71
2021/08/13 08:36:06;;;;;;;9.05;6.57;;;23.50;99.90;;;;;;5029298;28;20236;-71
2021/08/13 08:38:33;;;;;;;6.72;6.13;;;23.50;99.90;;;;;;5029320;28;20300;-71
2021/08/13 08:41:05;;;;;;;6.30;5.65;;;23.60;99.90;;;;;;5029168;28;20267;-71
2021/08/13 08:43:32;;;;;;;6.72;5.63;;;23.60;99.90;;;;;;5029348;28;20197;-71
2021/08/13 08:45:59;;;;;;;7.00;6.40;;;23.70;99.90;;;;;;5028973;28;20728;-71
2021/08/13 08:48:32;;;;;;;7.78;7.07;;;23.70;99.90;;;;;;5029107;28;20256;-71
2021/08/13 08:51:00;;;;;;;7.22;6.63;;;23.80;99.90;;;;;;5028662;28;20251;-71
2021/08/13 08:53:29;;;;;;;7.60;6.82;;;23.80;99.90;;;;;;5028742;28;20561;-71
2021/08/13 08:55:57;;;;;;;7.25;6.18;;;23.80;99.90;;;;;;5028794;28;20236;-71
2021/08/13 08:58:29;;;;;;;9.30;6.75;;;23.90;99.90;;;;;;5028782;28;20255;-72
2021/08/13 09:00:56;;;;;;;6.43;5.82;;;24.00;99.90;;;;;;5028533;28;20690;-71
2021/08/13 09:03:24;;;;;;;8.80;5.55;;;24.00;99.90;;;;;;5028542;28;20255;-72
2021/08/13 09:05:50;;;;;;;7.07;6.03;;;24.10;99.90;;;;;;5028820;28;20214;-71
2021/08/13 09:08:17;;;;;;;11.68;6.55;;;24.10;99.90;;;;;;5028670;28;20205;-71
2021/08/13 09:10:44;;;;;;;8.20;5.68;;;24.20;99.90;;;;;;5028480;28;20721;-72
2021/08/13 09:13:11;;;;;;;5.55;5.10;;;24.30;99.90;;;;;;5028877;28;20270;-71
2021/08/13 09:15:40;;;;;;;5.85;4.82;;;24.40;99.90;;;;;;5028593;28;20244;-71
2021/08/13 09:18:15;;;;;;;6.28;5.00;;;24.50;99.90;;;;;;5028327;28;20766;-71
2021/08/13 09:20:43;;;;;;;5.78;5.25;;;24.60;99.90;;;;;;5028315;28;20709;-71
2021/08/13 09:23:10;;;;;;;7.45;4.85;;;24.60;99.90;;;;;;5028179;28;20563;-72
2021/08/13 09:25:36;;;;;;;4.63;4.25;;;24.60;99.90;;;;;;5028389;28;20243;-71
2021/08/13 09:28:03;;;;;;;6.25;5.75;;;24.70;99.90;;;;;;5028399;28;20212;-71
2021/08/13 09:30:30;;;;;;;4.88;4.40;;;24.70;99.90;;;;;;5028209;28;20235;-72
2021/08/13 09:33:00;;;;;;;7.28;5.13;;;24.80;99.90;;;;;;5028036;28;20621;-71
2021/08/13 09:35:31;;;;;;;6.05;4.97;;;24.80;99.90;;;;;;5028398;28;20315;-71
2021/08/13 09:37:58;;;;;;;5.15;4.75;;;24.80;99.90;;;;;;5028034;28;20241;-71
2021/08/13 09:40:25;;;;;;;5.40;4.80;;;24.80;99.90;;;;;;5028272;28;20654;-71
2021/08/13 09:43:00;;;;;;;5.72;5.22;;;24.80;99.90;;;;;;5028124;28;20204;-71
2021/08/13 09:45:27;;;;;;;5.68;4.90;;;24.90;99.90;;;;;;5028229;28;20258;-71
2021/08/13 09:47:53;;;;;;;5.60;5.10;;;25.00;99.90;;;;;;5028268;28;20248;-71
2021/08/13 09:50:39;;;;;;;6.25;5.40;;;25.00;99.90;;;;;;5028125;28;20229;-72
2021/08/13 09:53:10;;;;;;;8.60;5.95;;;25.10;99.90;;;;;;5027968;28;21029;-72
2021/08/13 09:55:36;;;;;;;6.03;5.53;;;25.10;99.90;;;;;;5028134;28;20272;-72
2021/08/13 09:58:04;;;;;;;7.30;6.50;;;25.20;99.90;;;;;;5028052;28;20212;-72
2021/08/13 10:00:31;;;;;;;6.47;5.68;;;25.20;99.90;;;;;;5028199;28;20613;-72
2021/08/13 10:03:05;;;;;;;6.43;5.85;;;25.30;99.90;;;;;;5028161;28;20235;-71
2021/08/13 10:05:33;;;;;;;6.15;5.68;;;25.30;99.90;;;;;;5028077;28;20204;-72
2021/08/13 10:08:02;;;;;;;5.60;5.20;;;25.40;99.90;;;;;;5028022;28;20208;-71
2021/08/13 10:10:29;;;;;;;5.22;4.82;;;25.50;99.90;;;;;;5028019;28;20599;-72
2021/08/13 10:12:58;;;;;;;6.75;6.22;;;25.50;99.90;;;;;;5027908;28;20278;-71
2021/08/13 10:15:29;;;;;;;5.97;5.40;;;25.60;99.90;;;;;;5027546;28;20236;-72
2021/08/13 10:17:57;;;;;;;6.03;5.35;;;25.60;99.90;;;;;;5027667;28;20292;-72
2021/08/13 10:20:24;;;;;;;6.05;5.55;;;25.70;99.90;;;;;;5027880;28;20209;-71
2021/08/13 10:22:52;;;;;;;6.30;5.70;;;25.70;99.90;;;;;;5027950;28;20212;-72
2021/08/13 10:25:19;;;;;;;7.70;5.57;;;25.80;99.90;;;;;;5027699;28;20209;-72
2021/08/13 10:27:47;;;;;;;5.57;5.18;;;25.90;99.90;;;;;;5027855;28;20216;-71
2021/08/13 10:30:16;;;;;;;8.45;6.07;;;26.00;99.90;;;;;;5027537;28;20679;-72
2021/08/13 10:32:43;;;;;;;7.72;5.68;;;26.10;99.90;;;;;;5027573;28;20213;-72
2021/08/13 10:35:10;;;;;;;7.72;6.03;;;26.20;99.90;;;;;;5028331;28;20270;-72
2021/08/13 10:37:38;;;;;;;6.90;5.82;;;26.30;99.90;;;;;;5031516;28;20208;-71
2021/08/13 10:40:08;;;;;;;6.97;5.40;;;26.40;99.90;;;;;;5031279;28;20284;-72
2021/08/13 10:42:38;;;;;;;5.78;5.18;;;26.50;99.90;;;;;;5031215;28;20266;-72
2021/08/13 10:45:07;;;;;;;5.38;4.95;;;26.70;99.90;;;;;;5030929;28;20699;-72
2021/08/13 10:47:37;;;;;;;6.18;5.45;;;26.80;99.50;;;;;;5031169;28;20236;-72
2021/08/13 10:50:06;;;;;;;5.75;5.25;;;27.10;99.50;;;;;;5031129;28;20255;-72
2021/08/13 10:52:34;;;;;;;6.45;5.88;;;27.20;99.60;;;;;;5031347;28;20611;-72
2021/08/13 10:55:01;;;;;;;7.28;5.43;;;27.20;99.20;;;;;;5030881;28;20228;-72
2021/08/13 10:57:55;;;;;;;6.03;5.50;;;27.20;98.90;;;;;;5031118;28;20251;-72
2021/08/13 11:00:22;;;;;;;5.38;4.88;;;27.40;99.10;;;;;;5030560;28;20332;-72
2021/08/13 11:03:18;;;;;;;5.65;5.13;;;27.50;97.60;;;;;;5030453;28;20812;-72
2021/08/13 11:05:53;;;;;;;5.35;4.85;;;27.60;98.20;;;;;;5030911;28;20942;-72
2021/08/13 11:08:20;;;;;;;5.10;4.70;;;27.70;96.80;;;;;;5030973;28;20208;-72
2021/08/13 11:10:59;;;;;;;6.63;4.95;;;27.90;97.30;;;;;;5030883;28;20233;-72
2021/08/13 11:13:35;;;;;;;6.85;4.85;;;27.90;96.80;;;;;;5030665;28;20204;-72
2021/08/13 11:16:01;;;;;;;6.57;5.72;;;28.00;96.70;;;;;;5030789;28;20216;-72
2021/08/13 11:18:36;;;;;;;5.60;5.07;;;28.10;97.10;;;;;;5030778;28;20208;-72
2021/08/13 11:21:04;;;;;;;5.68;5.18;;;28.30;97.30;;;;;;5030424;28;20667;-72
2021/08/13 11:23:31;;;;;;;5.20;4.80;;;28.40;97.00;;;;;;5030494;28;20208;-72
2021/08/13 11:25:58;;;;;;;5.40;4.90;;;28.60;96.60;;;;;;5030496;28;20209;-72
2021/08/13 11:28:28;;;;;;;5.57;5.07;;;28.60;97.30;;;;;;5030638;28;20237;-72
2021/08/13 11:30:57;;;;;;;5.85;5.10;;;28.70;96.80;;;;;;5030461;28;20282;-72
2021/08/13 11:33:41;;;;;;;5.70;5.20;;;28.90;97.30;;;;;;5030342;28;20671;-72
2021/08/13 11:36:08;;;;;;;7.82;5.63;;;29.00;97.00;;;;;;5030156;28;20244;-72
2021/08/13 11:38:57;;;;;;;6.18;5.60;;;29.00;95.90;;;;;;5030297;28;20589;-72
2021/08/13 11:41:29;;;;;;;6.25;5.20;;;28.90;96.50;;;;;;5030104;28;20211;-71
2021/08/13 11:43:59;;;;;;;6.82;5.53;;;29.00;96.50;;;;;;5030186;28;20208;-72
2021/08/13 11:46:28;;;;;;;8.88;5.68;;;29.10;96.50;;;;;;5029302;28;20236;-72
2021/08/13 11:48:56;;;;;;;9.65;5.65;;;29.20;95.70;;;;;;5029718;28;20225;-72
2021/08/13 11:51:25;;;;;;;6.70;5.90;;;29.30;96.00;;;;;;5030078;28;20213;-72
2021/08/13 11:53:52;;;;;;;5.90;5.40;;;29.40;96.10;;;;;;5029975;28;20705;-72
2021/08/13 11:56:23;;;;;;;6.90;5.60;;;29.50;96.50;;;;;;5030014;28;20235;-72
2021/08/13 11:59:02;;;;;;;6.07;5.47;;;29.60;95.80;;;;;;5029642;28;20236;-72
2021/08/13 12:01:29;;;;;;;5.65;5.30;;;29.60;95.00;;;;;;5029952;28;20197;-72
2021/08/13 12:03:56;;;;;;;5.72;5.40;;;29.60;94.90;;;;;;5029538;28;20239;-72
2021/08/13 12:06:22;;;;;;;6.40;5.90;;;29.70;95.30;;;;;;5029798;28;20262;-72
2021/08/13 12:08:50;;;;;;;10.38;6.03;;;29.80;96.00;;;;;;5029357;28;20694;-72
2021/08/13 12:11:23;;;;;;;6.38;5.80;;;29.70;95.60;;;;;;5029467;28;20565;-72
2021/08/13 12:13:51;;;;;;;6.75;5.90;;;29.70;95.30;;;;;;5029641;28;20235;-72
2021/08/13 12:16:20;;;;;;;6.70;5.88;;;29.70;95.70;;;;;;5029113;28;20714;-72
2021/08/13 12:18:47;;;;;;;5.63;5.22;;;29.70;94.70;;;;;;5029504;28;20209;-72
2021/08/13 12:21:15;;;;;;;11.35;5.95;;;29.60;95.50;;;;;;5029107;28;20205;-72
2021/08/13 12:23:54;;;;;;;7.18;6.55;;;29.70;94.80;;;;;;5029097;28;20607;-72
2021/08/13 12:26:26;;;;;;;6.75;5.80;;;29.70;94.00;;;;;;5029434;28;20593;-72
2021/08/13 12:28:53;;;;;;;6.80;5.95;;;29.70;94.70;;;;;;5029371;28;20219;-72
2021/08/13 12:31:21;;;;;;;6.03;5.45;;;29.80;93.80;;;;;;5029420;28;20205;-72
2021/08/13 12:33:54;;;;;;;6.43;5.90;;;29.80;94.20;;;;;;5029327;28;20235;-72
2021/08/13 12:36:21;;;;;;;9.60;5.32;;;29.90;93.90;;;;;;5029234;28;20236;-72
2021/08/13 12:38:47;;;;;;;6.55;5.63;;;29.90;94.70;;;;;;5029193;28;20240;-72
2021/08/13 12:41:17;;;;;;;6.40;5.72;;;29.80;94.10;;;;;;5028345;28;20722;-72
2021/08/13 12:43:44;;;;;;;6.32;5.72;;;29.90;94.60;;;;;;5028883;28;20209;-72
2021/08/13 12:46:11;;;;;;;6.97;5.75;;;29.90;93.90;;;;;;5029225;28;20296;-72
2021/08/13 12:48:38;;;;;;;6.72;6.10;;;29.90;93.80;;;;;;5028999;28;20225;-72
2021/08/13 12:51:05;;;;;;;6.68;6.07;;;30.00;93.90;;;;;;5028963;28;20219;-72